createdAt,value
2023-12-21T00:01:27.175Z,3.09
2023-12-21T00:03:55.237Z,3.12
2023-12-21T00:06:23.355Z,3.20
2023-12-21T00:08:51.344Z,3.26
2023-12-21T00:11:19.275Z,3.31
2023-12-21T00:13:47.431Z,3.37
2023-12-21T00:16:16.540Z,3.42
2023-12-21T00:18:44.485Z,3.46
2023-12-21T00:21:12.454Z,3.47
2023-12-21T00:23:40.416Z,3.46
2023-12-21T00:26:08.715Z,3.43
2023-12-21T00:28:36.712Z,3.39
2023-12-21T00:31:05.088Z,3.35
2023-12-21T00:33:33.221Z,3.31
2023-12-21T00:36:01.321Z,3.30
2023-12-21T00:38:29.294Z,3.32
2023-12-21T00:40:58.448Z,3.35
2023-12-21T00:43:27.044Z,3.39
2023-12-21T00:45:55.172Z,3.43
2023-12-21T00:48:23.235Z,3.46
2023-12-21T00:50:51.358Z,3.50
2023-12-21T00:53:20.725Z,3.54
2023-12-21T00:55:48.653Z,3.58
2023-12-21T00:58:16.733Z,3.61
2023-12-21T01:00:44.893Z,3.64
2023-12-21T01:03:12.943Z,3.66
2023-12-21T01:05:41.592Z,3.67
2023-12-21T01:08:10.029Z,3.69
2023-12-21T01:10:39.933Z,3.70
2023-12-21T01:13:08.689Z,3.71
2023-12-21T01:15:36.762Z,3.71
2023-12-21T01:18:04.934Z,3.72
2023-12-21T01:20:33.505Z,3.73
2023-12-21T01:23:01.444Z,3.73
2023-12-21T01:25:29.455Z,3.73
2023-12-21T01:27:57.543Z,3.73
2023-12-21T01:30:25.584Z,3.73
2023-12-21T01:32:54.938Z,3.73
2023-12-21T01:35:23.058Z,3.72
2023-12-21T01:37:51.190Z,3.71
2023-12-21T01:40:19.323Z,3.68
2023-12-21T01:42:47.592Z,3.66
2023-12-21T01:45:15.826Z,3.63
2023-12-21T01:47:43.938Z,3.60
2023-12-21T01:50:12.272Z,3.59
2023-12-21T01:52:40.436Z,3.57
2023-12-21T01:55:09.432Z,3.55
2023-12-21T01:57:38.265Z,3.54
2023-12-21T02:00:07.662Z,3.53
2023-12-21T02:02:35.663Z,3.52
2023-12-21T02:05:03.761Z,3.53
2023-12-21T02:07:31.796Z,3.52
2023-12-21T02:09:59.996Z,3.52
2023-12-21T02:12:28.106Z,3.51
2023-12-21T02:14:56.144Z,3.51
2023-12-21T02:17:24.139Z,3.52
2023-12-21T02:19:52.385Z,3.52
2023-12-21T02:22:20.925Z,3.53
2023-12-21T02:24:48.861Z,3.55
2023-12-21T02:27:16.878Z,3.55
2023-12-21T02:29:44.816Z,3.55
2023-12-21T02:32:12.825Z,3.55
2023-12-21T02:34:40.860Z,3.55
2023-12-21T02:37:08.869Z,3.55
2023-12-21T02:39:36.851Z,3.55
2023-12-21T02:42:05.520Z,3.52
2023-12-21T02:44:33.543Z,3.46
2023-12-21T02:47:01.615Z,3.37
2023-12-21T02:49:29.593Z,3.28
2023-12-21T02:51:57.664Z,3.19
2023-12-21T02:54:26.307Z,3.10
2023-12-21T02:56:54.342Z,3.01
2023-12-21T02:59:22.359Z,2.93
2023-12-21T03:01:50.358Z,2.84
2023-12-21T03:04:18.371Z,2.75
2023-12-21T03:06:46.461Z,2.66
2023-12-21T03:09:14.555Z,2.57
2023-12-21T03:11:42.577Z,2.47
2023-12-21T03:14:10.753Z,2.37
2023-12-21T03:16:38.696Z,2.28
2023-12-21T03:19:06.819Z,2.17
2023-12-21T03:21:34.984Z,2.07
2023-12-21T03:24:02.897Z,1.97
2023-12-21T03:26:33.025Z,1.86
2023-12-21T03:29:01.045Z,1.76
2023-12-21T03:31:29.070Z,1.67
2023-12-21T03:33:57.157Z,1.58
2023-12-21T03:36:25.305Z,1.50
2023-12-21T03:38:53.205Z,1.42
2023-12-21T03:41:21.344Z,1.35
2023-12-21T03:43:49.275Z,1.28
2023-12-21T03:46:17.313Z,1.22
2023-12-21T03:48:45.960Z,1.15
2023-12-21T03:51:14.311Z,1.09
2023-12-21T03:53:42.845Z,1.02
2023-12-21T03:56:11.014Z,0.95
2023-12-21T03:58:41.933Z,0.90
2023-12-21T04:01:10.396Z,0.85
2023-12-21T04:03:38.656Z,0.81
2023-12-21T04:06:07.363Z,0.77
2023-12-21T04:08:35.313Z,0.75
2023-12-21T04:11:03.728Z,0.74
2023-12-21T04:13:31.689Z,0.72
2023-12-21T04:15:59.977Z,0.71
2023-12-21T04:18:28.144Z,0.69
2023-12-21T04:20:58.455Z,0.69
2023-12-21T04:23:27.911Z,0.68
2023-12-21T04:25:56.257Z,0.67
2023-12-21T04:28:24.655Z,0.65
2023-12-21T04:30:52.755Z,0.62
2023-12-21T04:33:20.913Z,0.58
2023-12-21T04:35:49.448Z,0.53
2023-12-21T04:38:17.426Z,0.48
2023-12-21T04:40:45.463Z,0.43
2023-12-21T04:43:13.641Z,0.38
2023-12-21T04:45:41.871Z,0.33
2023-12-21T04:48:09.976Z,0.27
2023-12-21T04:50:38.137Z,0.22
2023-12-21T04:53:06.419Z,0.17
2023-12-21T04:55:35.190Z,0.14
2023-12-21T04:58:03.235Z,0.14
2023-12-21T05:00:31.571Z,0.15
2023-12-21T05:02:59.695Z,0.16
2023-12-21T05:05:27.713Z,0.19
2023-12-21T05:07:57.281Z,0.23
2023-12-21T05:10:25.813Z,0.27
2023-12-21T05:12:53.949Z,0.32
2023-12-21T05:15:21.960Z,0.33
2023-12-21T05:17:49.993Z,0.35
2023-12-21T05:20:18.012Z,0.37
2023-12-21T05:22:46.212Z,0.38
2023-12-21T05:25:19.685Z,0.39
2023-12-21T05:27:47.671Z,0.40
2023-12-21T05:30:18.995Z,0.40
2023-12-21T05:32:47.761Z,0.40
2023-12-21T05:35:16.377Z,0.39
2023-12-21T05:37:44.456Z,0.39
2023-12-21T05:40:14.003Z,0.38
2023-12-21T05:42:42.140Z,0.35
2023-12-21T05:45:10.489Z,0.34
2023-12-21T05:47:38.584Z,0.32
2023-12-21T05:50:07.249Z,0.30
2023-12-21T05:52:35.329Z,0.29
2023-12-21T05:55:04.126Z,0.27
2023-12-21T05:57:32.130Z,0.25
2023-12-21T06:00:00.549Z,0.24
2023-12-21T06:02:28.704Z,0.24
2023-12-21T06:04:56.870Z,0.24
2023-12-21T06:07:24.876Z,0.23
2023-12-21T06:09:53.767Z,0.23
2023-12-21T06:12:21.709Z,0.23
2023-12-21T06:14:50.035Z,0.22
2023-12-21T06:17:19.273Z,0.20
2023-12-21T06:19:47.318Z,0.17
2023-12-21T06:22:16.240Z,0.15
2023-12-21T06:24:44.231Z,0.14
2023-12-21T06:27:12.922Z,0.14
2023-12-21T06:29:42.658Z,0.13
2023-12-21T06:32:11.765Z,0.12
2023-12-21T06:34:39.799Z,0.12
2023-12-21T06:37:08.759Z,0.12
2023-12-21T06:39:36.833Z,0.14
2023-12-21T06:42:05.563Z,0.16
2023-12-21T06:44:33.712Z,0.17
2023-12-21T06:47:01.758Z,0.17
2023-12-21T06:49:29.984Z,0.16
2023-12-21T06:51:58.100Z,0.17
2023-12-21T06:54:26.268Z,0.18
2023-12-21T06:56:54.212Z,0.19
2023-12-21T06:59:22.571Z,0.20
2023-12-21T07:01:50.710Z,0.22
2023-12-21T07:04:20.032Z,0.24
2023-12-21T07:06:48.157Z,0.29
2023-12-21T07:09:17.376Z,0.36
2023-12-21T07:11:46.730Z,0.42
2023-12-21T07:14:15.512Z,0.49
2023-12-21T07:16:43.507Z,0.56
2023-12-21T07:19:11.623Z,0.63
2023-12-21T07:21:39.673Z,0.72
2023-12-21T07:24:07.785Z,0.80
2023-12-21T07:26:38.074Z,0.89
2023-12-21T07:29:06.239Z,0.98
2023-12-21T07:31:34.339Z,1.06
2023-12-21T07:34:02.524Z,1.14
2023-12-21T07:36:30.546Z,1.21
2023-12-21T07:38:58.657Z,1.28
2023-12-21T07:41:26.724Z,1.34
2023-12-21T07:43:55.212Z,1.40
2023-12-21T07:46:23.389Z,1.47
2023-12-21T07:48:52.074Z,1.54
2023-12-21T07:51:20.088Z,1.60
2023-12-21T07:53:48.184Z,1.67
2023-12-21T07:56:16.282Z,1.74
2023-12-21T07:58:44.369Z,1.81
2023-12-21T08:01:12.559Z,1.89
2023-12-21T08:03:40.674Z,1.97
2023-12-21T08:06:08.640Z,2.05
2023-12-21T08:08:41.613Z,2.14
2023-12-21T08:11:16.700Z,2.24
2023-12-21T08:13:44.751Z,2.35
2023-12-21T08:16:12.785Z,2.44
2023-12-21T08:18:41.086Z,2.53
2023-12-21T08:21:09.068Z,2.61
2023-12-21T08:23:36.998Z,2.69
2023-12-21T08:26:07.373Z,2.75
2023-12-21T08:28:35.555Z,2.82
2023-12-21T08:31:05.241Z,2.88
2023-12-21T08:33:33.905Z,2.92
2023-12-21T08:36:02.133Z,2.94
2023-12-21T08:38:30.137Z,2.96
2023-12-21T08:40:58.176Z,2.98
2023-12-21T08:43:26.832Z,3.00
2023-12-21T08:45:54.871Z,3.03
2023-12-21T08:48:22.866Z,3.04
2023-12-21T08:50:51.543Z,3.03
2023-12-21T08:53:19.464Z,3.01
2023-12-21T08:55:47.621Z,2.98
2023-12-21T08:58:16.066Z,2.95
2023-12-21T09:00:46.049Z,2.92
2023-12-21T09:03:14.094Z,2.90
2023-12-21T09:05:42.166Z,2.88
2023-12-21T09:08:10.225Z,2.87
2023-12-21T09:10:38.199Z,2.87
2023-12-21T09:13:06.817Z,2.89
2023-12-21T09:15:34.963Z,2.92
2023-12-21T09:18:04.590Z,2.96
2023-12-21T09:20:32.675Z,3.02
2023-12-21T09:23:01.148Z,3.10
2023-12-21T09:25:29.282Z,3.19
2023-12-21T09:27:59.374Z,3.29
2023-12-21T09:30:27.814Z,3.40
2023-12-21T09:32:56.074Z,3.49
2023-12-21T09:35:24.502Z,3.57
2023-12-21T09:37:52.997Z,3.63
2023-12-21T09:40:21.128Z,3.64
2023-12-21T09:43:01.058Z,3.63
2023-12-21T09:45:33.225Z,3.60
2023-12-21T09:48:01.896Z,3.59
2023-12-21T09:50:33.002Z,3.59
2023-12-21T09:53:01.085Z,3.59
2023-12-21T09:55:29.709Z,3.59
2023-12-21T09:57:57.774Z,3.58
2023-12-21T10:00:26.086Z,3.58
2023-12-21T10:02:54.919Z,3.58
2023-12-21T10:05:22.980Z,3.60
2023-12-21T10:07:51.025Z,3.61
2023-12-21T10:10:20.001Z,3.64
2023-12-21T10:12:49.244Z,3.66
2023-12-21T10:15:20.974Z,3.69
2023-12-21T10:17:49.653Z,3.72
2023-12-21T10:20:17.836Z,3.76
2023-12-21T10:22:46.602Z,3.80
2023-12-21T10:25:14.947Z,3.87
2023-12-21T10:27:56.266Z,3.93
2023-12-21T10:30:24.916Z,3.98
2023-12-21T10:32:59.597Z,4.03
2023-12-21T10:35:30.462Z,4.07
2023-12-21T10:37:59.165Z,4.09
2023-12-21T10:40:27.261Z,4.11
2023-12-21T10:42:56.007Z,4.15
2023-12-21T10:45:33.440Z,4.18
2023-12-21T10:48:08.360Z,4.20
2023-12-21T10:50:36.741Z,4.22
2023-12-21T10:53:04.862Z,4.23
2023-12-21T10:55:33.652Z,4.23
2023-12-21T10:58:02.446Z,4.23
2023-12-21T11:00:30.492Z,4.23
2023-12-21T11:02:58.546Z,4.24
2023-12-21T11:05:28.427Z,4.23
2023-12-21T11:07:57.151Z,4.23
2023-12-21T11:10:25.374Z,4.21
2023-12-21T11:12:54.234Z,4.21
2023-12-21T11:15:22.249Z,4.21
2023-12-21T11:17:54.621Z,4.21
2023-12-21T11:20:35.219Z,4.21
2023-12-21T11:23:10.236Z,4.21
2023-12-21T11:25:38.345Z,4.21
2023-12-21T11:28:06.518Z,4.20
2023-12-21T11:30:34.936Z,4.19
2023-12-21T11:33:10.483Z,4.18
2023-12-21T11:35:38.755Z,4.18
2023-12-21T11:38:07.722Z,4.17
2023-12-21T11:40:36.951Z,4.16
2023-12-21T11:43:08.861Z,4.14
2023-12-21T11:45:40.532Z,4.15
2023-12-21T11:48:12.969Z,4.15
2023-12-21T11:50:41.235Z,4.15
2023-12-21T11:53:14.796Z,4.16
2023-12-21T11:55:45.461Z,4.16
2023-12-21T11:58:21.627Z,4.15
2023-12-21T12:00:55.287Z,4.13
2023-12-21T12:03:29.378Z,4.11
2023-12-21T12:06:01.625Z,4.09
2023-12-21T12:08:29.714Z,4.06
2023-12-21T12:11:00.970Z,4.05
2023-12-21T12:13:32.023Z,4.03
2023-12-21T12:16:00.094Z,4.00
2023-12-21T12:18:28.095Z,3.98
2023-12-21T12:21:02.446Z,3.96
2023-12-21T12:23:30.823Z,3.94
2023-12-21T12:25:59.201Z,3.92
2023-12-21T12:28:28.373Z,3.88
2023-12-21T12:30:57.329Z,3.84
2023-12-21T12:33:25.752Z,3.78
2023-12-21T12:35:53.972Z,3.72
2023-12-21T12:38:22.298Z,3.67
2023-12-21T12:40:51.129Z,3.60
2023-12-21T12:43:19.878Z,3.55
2023-12-21T12:45:48.185Z,3.49
2023-12-21T12:48:19.902Z,3.44
2023-12-21T12:50:47.973Z,3.38
2023-12-21T12:53:19.370Z,3.34
2023-12-21T12:55:48.591Z,3.29
2023-12-21T12:58:16.980Z,3.25
2023-12-21T13:00:45.487Z,3.22
2023-12-21T13:03:14.522Z,3.20
2023-12-21T13:05:42.931Z,3.16
2023-12-21T13:08:11.496Z,3.14
2023-12-21T13:10:39.739Z,3.09
2023-12-21T13:13:08.091Z,3.06
2023-12-21T13:15:36.493Z,3.04
2023-12-21T13:18:05.050Z,3.00
2023-12-21T13:20:33.379Z,2.95
2023-12-21T13:23:01.768Z,2.90
2023-12-21T13:25:30.037Z,2.86
2023-12-21T13:28:11.187Z,2.81
2023-12-21T13:30:43.885Z,2.74
2023-12-21T13:33:13.545Z,2.69
2023-12-21T13:35:41.991Z,2.62
2023-12-21T13:38:10.473Z,2.57
2023-12-21T13:40:38.726Z,2.51
2023-12-21T13:43:07.094Z,2.44
2023-12-21T13:45:36.178Z,2.39
2023-12-21T13:48:06.288Z,2.33
2023-12-21T13:50:35.411Z,2.27
2023-12-21T13:53:03.781Z,2.22
2023-12-21T13:55:32.094Z,2.17
2023-12-21T13:58:00.286Z,2.13
2023-12-21T14:00:30.183Z,2.09
2023-12-21T14:02:59.076Z,2.05
2023-12-21T14:05:27.489Z,2.03
2023-12-21T14:07:56.037Z,2.00
2023-12-21T14:10:24.924Z,1.97
2023-12-21T14:12:58.264Z,1.94
2023-12-21T14:15:27.745Z,1.92
2023-12-21T14:17:56.118Z,1.88
2023-12-21T14:20:25.388Z,1.85
2023-12-21T14:22:54.113Z,1.81
2023-12-21T14:25:22.547Z,1.78
2023-12-21T14:27:50.908Z,1.75
2023-12-21T14:30:19.331Z,1.72
2023-12-21T14:32:47.652Z,1.68
2023-12-21T14:35:16.183Z,1.63
2023-12-21T14:37:45.024Z,1.57
2023-12-21T14:40:13.587Z,1.51
2023-12-21T14:42:41.963Z,1.44
2023-12-21T14:45:11.257Z,1.39
2023-12-21T14:47:39.501Z,1.34
2023-12-21T14:50:08.622Z,1.29
2023-12-21T14:52:37.277Z,1.24
2023-12-21T14:55:06.523Z,1.19
2023-12-21T14:57:34.805Z,1.14
2023-12-21T15:00:04.512Z,1.10
2023-12-21T15:02:32.925Z,1.04
2023-12-21T15:05:01.322Z,1.00
2023-12-21T15:07:30.044Z,0.94
2023-12-21T15:10:02.948Z,0.88
2023-12-21T15:12:31.090Z,0.81
2023-12-21T15:14:59.383Z,0.75
2023-12-21T15:17:27.622Z,0.71
2023-12-21T15:19:55.999Z,0.67
2023-12-21T15:22:24.353Z,0.65
2023-12-21T15:24:52.803Z,0.63
2023-12-21T15:27:21.116Z,0.61
2023-12-21T15:29:49.745Z,0.59
2023-12-21T15:32:18.076Z,0.59
2023-12-21T15:34:46.505Z,0.56
2023-12-21T15:37:14.970Z,0.55
2023-12-21T15:39:45.651Z,0.52
2023-12-21T15:42:14.027Z,0.51
2023-12-21T15:44:42.275Z,0.49
2023-12-21T15:47:10.489Z,0.47
2023-12-21T15:49:38.735Z,0.45
2023-12-21T15:52:08.607Z,0.44
2023-12-21T15:54:37.147Z,0.45
2023-12-21T15:57:05.841Z,0.45
2023-12-21T15:59:36.603Z,0.46
2023-12-21T16:02:05.574Z,0.45
2023-12-21T16:04:36.780Z,0.46
2023-12-21T16:07:05.582Z,0.45
2023-12-21T16:22:11.747Z,0.47
2023-12-21T16:24:40.334Z,0.45
2023-12-21T16:27:11.074Z,0.46
2023-12-21T16:29:42.186Z,0.45
2023-12-21T16:32:10.938Z,0.45
2023-12-21T16:34:41.735Z,0.45
2023-12-21T16:37:10.178Z,0.43
2023-12-21T16:39:38.755Z,0.41
2023-12-21T16:42:07.242Z,0.39
2023-12-21T16:44:36.117Z,0.36
2023-12-21T16:47:04.947Z,0.33
2023-12-21T16:49:33.210Z,0.29
2023-12-21T16:52:04.543Z,0.26
2023-12-21T16:54:32.860Z,0.24
2023-12-21T16:57:01.169Z,0.22
2023-12-21T16:59:29.788Z,0.20
2023-12-21T17:01:58.764Z,0.17
2023-12-21T17:04:27.155Z,0.15
2023-12-21T17:06:55.510Z,0.12
2023-12-21T17:09:23.886Z,0.10
2023-12-21T17:11:52.137Z,0.07
2023-12-21T17:14:20.568Z,0.05
2023-12-21T17:16:48.817Z,0.01
2023-12-21T17:19:17.376Z,-0.03
2023-12-21T17:21:45.815Z,-0.07
2023-12-21T17:24:14.133Z,-0.11
2023-12-21T17:26:42.445Z,-0.14
2023-12-21T17:29:10.779Z,-0.16
2023-12-21T17:31:39.196Z,-0.19
2023-12-21T17:34:09.469Z,-0.21
2023-12-21T17:36:39.828Z,-0.23
2023-12-21T17:39:08.292Z,-0.25
2023-12-21T17:41:36.600Z,-0.27
2023-12-21T17:44:04.976Z,-0.27
2023-12-21T17:46:33.334Z,-0.29
2023-12-21T17:49:01.687Z,-0.30
2023-12-21T17:51:30.054Z,-0.31
2023-12-21T17:53:58.301Z,-0.32
2023-12-21T17:56:26.773Z,-0.34
2023-12-21T17:58:55.145Z,-0.36
2023-12-21T18:01:23.768Z,-0.38
2023-12-21T18:03:52.286Z,-0.41
2023-12-21T18:06:21.193Z,-0.44
2023-12-21T18:08:49.907Z,-0.47
2023-12-21T18:11:18.863Z,-0.49
2023-12-21T18:13:47.609Z,-0.51
2023-12-21T18:16:16.048Z,-0.53
2023-12-21T18:18:44.345Z,-0.55
2023-12-21T18:21:15.535Z,-0.56
2023-12-21T18:23:43.778Z,-0.58
2023-12-21T18:26:11.982Z,-0.60
2023-12-21T18:28:40.310Z,-0.61
2023-12-21T18:31:08.808Z,-0.63
2023-12-21T18:33:39.328Z,-0.62
2023-12-21T18:36:07.909Z,-0.61
2023-12-21T18:38:36.174Z,-0.60
2023-12-21T18:41:04.770Z,-0.59
2023-12-21T18:43:33.154Z,-0.57
2023-12-21T18:46:01.523Z,-0.52
2023-12-21T18:48:30.181Z,-0.50
2023-12-21T18:50:59.853Z,-0.48
2023-12-21T18:53:29.958Z,-0.45
2023-12-21T18:56:00.638Z,-0.41
2023-12-21T18:58:29.331Z,-0.39
2023-12-21T19:00:57.608Z,-0.36
2023-12-21T19:03:26.973Z,-0.36
2023-12-21T19:05:55.764Z,-0.36
2023-12-21T19:08:24.605Z,-0.36
2023-12-21T19:10:53.900Z,-0.35
2023-12-21T19:13:22.312Z,-0.36
2023-12-21T19:15:50.509Z,-0.37
2023-12-21T19:18:18.977Z,-0.38
2023-12-21T19:20:47.933Z,-0.39
2023-12-21T19:23:16.433Z,-0.40
2023-12-21T19:25:44.927Z,-0.42
2023-12-21T19:28:13.360Z,-0.43
2023-12-21T19:30:41.642Z,-0.46
2023-12-21T19:33:14.193Z,-0.47
2023-12-21T19:35:42.686Z,-0.47
2023-12-21T19:38:11.020Z,-0.46
2023-12-21T19:40:39.550Z,-0.46
2023-12-21T19:43:08.403Z,-0.44
2023-12-21T19:45:36.795Z,-0.42
2023-12-21T19:48:06.001Z,-0.43
2023-12-21T19:50:38.161Z,-0.43
2023-12-21T19:53:07.354Z,-0.42
2023-12-21T19:55:38.024Z,-0.41
2023-12-21T19:58:06.966Z,-0.40
2023-12-21T20:00:35.195Z,-0.39
2023-12-21T20:03:03.788Z,-0.40
2023-12-21T20:05:32.759Z,-0.40
2023-12-21T20:08:01.286Z,-0.41
2023-12-21T20:10:29.700Z,-0.41
2023-12-21T20:12:57.966Z,-0.41
2023-12-21T20:15:26.741Z,-0.40
2023-12-21T20:17:55.437Z,-0.41
2023-12-21T20:20:23.882Z,-0.43
2023-12-21T20:22:52.215Z,-0.45
2023-12-21T20:25:20.589Z,-0.46
2023-12-21T20:27:51.156Z,-0.47
2023-12-21T20:30:19.631Z,-0.47
2023-12-21T20:32:49.777Z,-0.45
2023-12-21T20:35:17.846Z,-0.44
2023-12-21T20:37:48.949Z,-0.43
2023-12-21T20:40:18.390Z,-0.41
2023-12-21T20:42:47.336Z,-0.41
2023-12-21T20:45:15.930Z,-0.41
2023-12-21T20:47:44.284Z,-0.41
2023-12-21T20:50:17.576Z,-0.41
2023-12-21T20:52:45.984Z,-0.40
2023-12-21T20:55:16.303Z,-0.39
2023-12-21T20:57:44.905Z,-0.38
2023-12-21T21:00:13.616Z,-0.37
2023-12-21T21:02:41.676Z,-0.36
2023-12-21T21:05:10.920Z,-0.35
2023-12-21T21:07:39.111Z,-0.35
2023-12-21T21:10:07.507Z,-0.35
2023-12-21T21:12:35.798Z,-0.33
2023-12-21T21:15:04.219Z,-0.32
2023-12-21T21:17:32.568Z,-0.33
2023-12-21T21:20:03.606Z,-0.33
2023-12-21T21:22:31.839Z,-0.33
2023-12-21T21:24:59.909Z,-0.33
2023-12-21T21:27:27.902Z,-0.32
2023-12-21T21:29:55.957Z,-0.30
2023-12-21T21:32:24.487Z,-0.29
2023-12-21T21:34:52.576Z,-0.27
2023-12-21T21:37:23.333Z,-0.25
2023-12-21T21:39:52.150Z,-0.24
2023-12-21T21:42:20.216Z,-0.22
2023-12-21T21:44:48.348Z,-0.20
2023-12-21T21:47:16.323Z,-0.18
2023-12-21T21:49:44.452Z,-0.17
2023-12-21T21:52:12.682Z,-0.17
2023-12-21T21:54:40.712Z,-0.19
2023-12-21T21:57:08.766Z,-0.20
2023-12-21T21:59:37.677Z,-0.21
2023-12-21T22:02:07.349Z,-0.22
2023-12-21T22:04:36.010Z,-0.22
2023-12-21T22:07:05.340Z,-0.23
2023-12-21T22:09:33.469Z,-0.24
2023-12-21T22:12:02.136Z,-0.24
2023-12-21T22:14:30.222Z,-0.25
2023-12-21T22:16:58.316Z,-0.24
2023-12-21T22:19:26.493Z,-0.23
2023-12-21T22:21:54.884Z,-0.22
2023-12-21T22:24:23.032Z,-0.21
2023-12-21T22:26:51.173Z,-0.20
2023-12-21T22:29:19.351Z,-0.19
2023-12-21T22:31:47.556Z,-0.18
2023-12-21T22:34:15.619Z,-0.18
2023-12-21T22:36:44.018Z,-0.16
2023-12-21T22:39:12.045Z,-0.15
2023-12-21T22:41:40.083Z,-0.15
2023-12-21T22:44:08.259Z,-0.15
2023-12-21T22:46:36.418Z,-0.13
2023-12-21T22:49:04.563Z,-0.11
2023-12-21T22:55:23.605Z,-0.07
2023-12-21T22:57:51.752Z,-0.04
2023-12-21T23:00:20.487Z,-0.00
2023-12-21T23:02:52.059Z,0.03
2023-12-21T23:05:20.191Z,0.06
2023-12-21T23:07:48.368Z,0.09
2023-12-21T23:10:16.869Z,0.11
2023-12-21T23:12:47.937Z,0.14
2023-12-21T23:15:16.607Z,0.18
2023-12-21T23:17:44.867Z,0.23
2023-12-21T23:20:13.099Z,0.26
2023-12-21T23:22:41.279Z,0.29
2023-12-21T23:25:09.799Z,0.33
2023-12-21T23:27:37.854Z,0.35
2023-12-21T23:30:06.845Z,0.37
2023-12-21T23:32:35.030Z,0.39
2023-12-21T23:35:13.328Z,0.41
2023-12-21T23:37:46.817Z,0.44
2023-12-21T23:40:15.996Z,0.48
2023-12-21T23:42:44.409Z,0.51
2023-12-21T23:45:12.704Z,0.56
2023-12-21T23:47:41.077Z,0.60
2023-12-21T23:50:09.532Z,0.64
2023-12-21T23:52:38.274Z,0.68
2023-12-21T23:55:07.440Z,0.71
2023-12-21T23:57:35.411Z,0.75
